createdAt,value
2022-12-01T00:01:22.736Z,3.70
2022-12-01T00:03:51.193Z,3.60
2022-12-01T00:06:20.362Z,3.60
2022-12-01T00:09:03.739Z,3.60
2022-12-01T00:11:32.040Z,3.60
2022-12-01T00:14:03.724Z,3.70
2022-12-01T00:16:32.572Z,3.70
2022-12-01T00:19:00.707Z,3.60
2022-12-01T00:21:29.212Z,3.60
2022-12-01T00:23:58.615Z,3.60
2022-12-01T00:26:28.043Z,3.60
2022-12-01T00:28:57.107Z,3.60
2022-12-01T00:31:27.245Z,3.60
2022-12-01T00:33:55.790Z,3.60
2022-12-01T00:36:24.473Z,3.60
2022-12-01T00:38:52.957Z,3.60
2022-12-01T00:41:22.165Z,3.60
2022-12-01T00:43:51.160Z,3.60
2022-12-01T00:46:19.575Z,3.60
2022-12-01T00:48:49.420Z,3.60
2022-12-01T00:51:17.501Z,3.60
2022-12-01T00:53:46.203Z,3.60
2022-12-01T00:56:14.898Z,3.50
2022-12-01T00:58:43.673Z,3.50
2022-12-01T01:01:11.885Z,3.50
2022-12-01T01:03:40.424Z,3.50
2022-12-01T01:06:11.448Z,3.50
2022-12-01T01:08:40.264Z,3.50
2022-12-01T01:11:08.970Z,3.50
2022-12-01T01:13:37.888Z,3.50
2022-12-01T01:16:07.793Z,3.50
2022-12-01T01:18:35.933Z,3.50
2022-12-01T01:21:05.372Z,3.50
2022-12-01T01:23:35.262Z,3.50
2022-12-01T01:26:04.394Z,3.40
2022-12-01T01:28:32.861Z,3.50
2022-12-01T01:31:01.774Z,3.50
2022-12-01T01:33:30.993Z,3.50
2022-12-01T01:35:59.903Z,3.50
2022-12-01T01:38:27.992Z,3.50
2022-12-01T01:40:58.328Z,3.50
2022-12-01T01:43:45.956Z,3.40
2022-12-01T01:46:16.056Z,3.40
2022-12-01T01:48:47.556Z,3.40
2022-12-01T01:51:16.735Z,3.40
2022-12-01T01:53:45.761Z,3.40
2022-12-01T01:56:15.410Z,3.40
2022-12-01T01:58:45.011Z,3.40
2022-12-01T02:01:13.232Z,3.40
2022-12-01T02:03:42.729Z,3.40
2022-12-01T02:06:12.034Z,3.30
2022-12-01T02:08:40.685Z,3.30
2022-12-01T02:11:17.215Z,3.30
2022-12-01T02:13:52.578Z,3.30
2022-12-01T02:16:25.527Z,3.30
2022-12-01T02:19:01.420Z,3.30
2022-12-01T02:21:32.516Z,3.30
2022-12-01T02:24:20.063Z,3.40
2022-12-01T02:26:52.293Z,3.40
2022-12-01T02:29:35.508Z,3.50
2022-12-01T02:32:12.457Z,3.60
2022-12-01T02:34:43.787Z,3.70
2022-12-01T02:37:15.837Z,3.70
2022-12-01T02:39:48.587Z,3.70
2022-12-01T02:42:38.794Z,3.70
2022-12-01T02:45:11.531Z,3.70
2022-12-01T02:47:41.791Z,3.70
2022-12-01T02:50:11.495Z,3.70
2022-12-01T02:52:42.556Z,3.70
2022-12-01T02:55:11.179Z,3.70
2022-12-01T02:57:39.263Z,3.60
2022-12-01T03:00:13.653Z,3.60
2022-12-01T03:02:49.602Z,3.60
2022-12-01T03:05:22.627Z,3.60
2022-12-01T03:07:58.685Z,3.60
2022-12-01T03:10:30.911Z,3.70
2022-12-01T03:13:04.386Z,4.00
2022-12-01T03:15:36.958Z,3.70
2022-12-01T03:18:11.216Z,3.80
2022-12-01T03:20:43.785Z,3.80
2022-12-01T03:23:14.298Z,3.80
2022-12-01T03:25:44.576Z,3.80
2022-12-01T03:28:21.173Z,3.80
2022-12-01T03:30:52.147Z,3.80
2022-12-01T03:33:25.165Z,3.70
2022-12-01T03:35:55.347Z,3.70
2022-12-01T03:38:25.268Z,3.70
2022-12-01T03:40:58.147Z,3.60
2022-12-01T03:43:28.953Z,3.70
2022-12-01T03:46:00.636Z,3.60
2022-12-01T03:48:30.603Z,3.70
2022-12-01T03:51:03.238Z,3.70
2022-12-01T03:53:33.931Z,3.70
2022-12-01T03:56:03.751Z,3.70
2022-12-01T03:58:34.961Z,3.80
2022-12-01T04:01:03.391Z,3.80
2022-12-01T04:03:32.866Z,3.80
2022-12-01T04:06:01.329Z,3.80
2022-12-01T04:08:30.923Z,3.80
2022-12-01T04:10:59.016Z,3.80
2022-12-01T04:13:27.015Z,3.80
2022-12-01T04:15:55.796Z,3.90
2022-12-01T04:18:24.747Z,3.90
2022-12-01T04:20:54.315Z,4.00
2022-12-01T04:23:37.094Z,4.00
2022-12-01T04:26:08.976Z,4.10
2022-12-01T04:28:39.916Z,4.20
2022-12-01T04:31:08.035Z,4.20
2022-12-01T04:33:36.579Z,4.20
2022-12-01T04:36:06.602Z,4.20
2022-12-01T04:38:37.406Z,4.20
2022-12-01T04:41:08.869Z,4.20
2022-12-01T04:43:37.682Z,4.20
2022-12-01T04:46:06.293Z,4.20
2022-12-01T04:48:36.331Z,4.30
2022-12-01T04:51:06.832Z,4.30
2022-12-01T04:53:34.894Z,4.30
2022-12-01T04:56:04.292Z,4.30
2022-12-01T04:58:33.408Z,4.30
2022-12-01T05:01:02.688Z,4.20
2022-12-01T05:03:30.792Z,4.10
2022-12-01T05:06:03.082Z,4.10
2022-12-01T05:08:32.567Z,4.10
2022-12-01T05:11:01.111Z,4.10
2022-12-01T05:13:29.821Z,4.10
2022-12-01T05:16:05.024Z,4.10
2022-12-01T05:18:33.749Z,4.20
2022-12-01T05:21:01.261Z,4.20
2022-12-01T05:23:30.756Z,4.10
2022-12-01T05:26:00.209Z,4.20
2022-12-01T05:28:29.273Z,4.20
2022-12-01T05:30:57.401Z,4.30
2022-12-01T05:33:26.689Z,4.30
2022-12-01T05:35:55.512Z,4.30
2022-12-01T05:38:23.793Z,4.40
2022-12-01T05:40:53.393Z,4.40
2022-12-01T05:43:29.161Z,4.40
2022-12-01T05:45:58.910Z,4.40
2022-12-01T05:48:27.111Z,4.50
2022-12-01T05:50:55.549Z,4.50
2022-12-01T05:53:23.633Z,4.50
2022-12-01T05:55:55.843Z,4.50
2022-12-01T05:58:25.374Z,4.60
2022-12-01T06:00:53.988Z,4.60
2022-12-01T06:03:22.069Z,4.70
2022-12-01T06:05:51.218Z,4.60
2022-12-01T06:08:23.263Z,4.60
2022-12-01T06:10:51.990Z,4.50
2022-12-01T06:13:20.103Z,4.50
2022-12-01T06:15:58.648Z,4.50
2022-12-01T06:18:27.150Z,4.50
2022-12-01T06:20:55.414Z,4.50
2022-12-01T06:23:28.899Z,4.40
2022-12-01T06:25:58.844Z,4.40
2022-12-01T06:28:26.910Z,4.40
2022-12-01T06:31:01.016Z,4.30
2022-12-01T06:33:32.914Z,4.30
2022-12-01T06:36:01.296Z,4.30
2022-12-01T06:38:31.535Z,4.20
2022-12-01T06:40:59.741Z,4.20
2022-12-01T06:43:28.307Z,4.20
2022-12-01T06:46:01.317Z,4.20
2022-12-01T06:48:30.488Z,4.20
2022-12-01T06:51:00.251Z,4.20
2022-12-01T06:53:29.009Z,4.10
2022-12-01T06:56:00.395Z,4.20
2022-12-01T06:58:28.629Z,4.20
2022-12-01T07:00:59.026Z,4.20
2022-12-01T07:03:27.632Z,5.30
2022-12-01T07:05:58.943Z,5.00
2022-12-01T07:08:32.728Z,4.20
2022-12-01T07:11:01.723Z,4.10
2022-12-01T07:13:33.333Z,4.10
2022-12-01T07:16:03.349Z,4.20
2022-12-01T07:18:31.996Z,4.20
2022-12-01T07:21:01.988Z,4.10
2022-12-01T07:23:32.518Z,4.10
2022-12-01T07:26:00.974Z,4.10
2022-12-01T07:28:29.992Z,4.10
2022-12-01T07:31:02.577Z,4.10
2022-12-01T07:33:31.444Z,4.10
2022-12-01T07:35:59.724Z,4.10
2022-12-01T07:38:28.772Z,4.10
2022-12-01T07:41:01.943Z,4.10
2022-12-01T07:43:30.863Z,4.10
2022-12-01T07:45:59.167Z,4.10
2022-12-01T07:48:27.560Z,4.20
2022-12-01T07:50:56.666Z,4.20
2022-12-01T07:53:24.993Z,4.20
2022-12-01T07:55:53.669Z,4.20
2022-12-01T07:58:23.149Z,4.30
2022-12-01T08:00:51.690Z,4.30
2022-12-01T08:03:19.953Z,4.40
2022-12-01T08:05:57.118Z,4.40
2022-12-01T08:08:25.423Z,4.30
2022-12-01T08:10:53.965Z,4.30
2022-12-01T08:13:24.412Z,4.30
2022-12-01T08:15:52.535Z,4.30
2022-12-01T08:18:21.236Z,4.30
2022-12-01T08:20:49.356Z,4.40
2022-12-01T08:23:17.956Z,4.40
2022-12-01T08:25:46.334Z,4.40
2022-12-01T08:28:14.998Z,4.40
2022-12-01T08:30:44.463Z,4.40
2022-12-01T08:33:12.963Z,4.40
2022-12-01T08:35:41.423Z,4.40
2022-12-01T08:38:09.923Z,4.40
2022-12-01T08:40:38.586Z,4.40
2022-12-01T08:43:06.831Z,4.50
2022-12-01T08:45:35.520Z,4.40
2022-12-01T08:48:05.122Z,4.40
2022-12-01T08:50:33.754Z,4.40
2022-12-01T08:53:01.907Z,4.50
2022-12-01T08:55:29.979Z,4.50
2022-12-01T08:57:58.840Z,4.50
2022-12-01T09:00:29.009Z,4.50
2022-12-01T09:02:57.461Z,4.50
2022-12-01T09:05:37.015Z,4.50
2022-12-01T09:08:19.897Z,4.50
2022-12-01T09:10:51.806Z,4.40
2022-12-01T09:13:20.449Z,4.50
2022-12-01T09:15:55.346Z,4.50
2022-12-01T09:18:23.757Z,4.50
2022-12-01T09:20:53.241Z,4.50
2022-12-01T09:23:21.881Z,4.60
2022-12-01T09:25:50.892Z,4.60
2022-12-01T09:28:19.420Z,4.60
2022-12-01T09:30:48.664Z,4.70
2022-12-01T09:33:16.956Z,4.70
2022-12-01T09:35:45.299Z,4.70
2022-12-01T09:38:14.747Z,4.70
2022-12-01T09:40:43.906Z,4.70
2022-12-01T09:43:15.440Z,4.70
2022-12-01T09:45:46.357Z,4.80
2022-12-01T09:48:20.600Z,4.80
2022-12-01T09:50:49.227Z,4.80
2022-12-01T09:53:20.609Z,4.80
2022-12-01T09:55:50.004Z,4.70
2022-12-01T09:58:19.448Z,4.70
2022-12-01T10:00:49.633Z,4.70
2022-12-01T10:03:22.994Z,4.70
2022-12-01T10:06:26.600Z,4.70
2022-12-01T10:08:55.904Z,4.60
2022-12-01T10:11:29.486Z,4.60
2022-12-01T10:13:57.649Z,4.60
2022-12-01T10:16:29.222Z,4.60
2022-12-01T10:18:59.620Z,4.60
2022-12-01T10:21:34.505Z,4.60
2022-12-01T10:24:12.808Z,4.60
2022-12-01T10:26:47.400Z,4.60
2022-12-01T10:29:20.037Z,4.70
2022-12-01T10:31:52.869Z,4.70
2022-12-01T10:34:22.499Z,4.70
2022-12-01T10:36:51.171Z,4.70
2022-12-01T10:39:23.875Z,4.70
2022-12-01T10:41:52.883Z,4.60
2022-12-01T10:44:21.080Z,4.70
2022-12-01T10:46:54.676Z,4.70
2022-12-01T10:49:35.085Z,4.70
2022-12-01T10:52:03.615Z,4.70
2022-12-01T10:54:35.403Z,4.80
2022-12-01T10:57:04.462Z,4.90
2022-12-01T10:59:34.217Z,4.90
2022-12-01T11:02:03.069Z,4.90
2022-12-01T11:04:36.350Z,4.90
2022-12-01T11:07:04.818Z,4.90
2022-12-01T11:09:34.711Z,4.90
2022-12-01T11:12:03.696Z,5.00
2022-12-01T11:14:37.721Z,5.00
2022-12-01T11:17:16.658Z,5.00
2022-12-01T11:19:45.487Z,5.10
2022-12-01T11:22:20.568Z,5.10
2022-12-01T11:24:59.111Z,5.10
2022-12-01T11:27:28.328Z,5.20
2022-12-01T11:29:58.162Z,5.20
2022-12-01T11:32:27.863Z,5.20
2022-12-01T11:34:57.907Z,5.30
2022-12-01T11:37:28.639Z,5.30
2022-12-01T11:40:05.935Z,5.40
2022-12-01T11:42:36.941Z,5.40
2022-12-01T11:45:08.499Z,5.40
2022-12-01T11:47:36.616Z,5.40
2022-12-01T11:50:24.144Z,5.40
2022-12-01T11:52:52.384Z,5.40
2022-12-01T11:55:23.493Z,5.50
2022-12-01T11:57:53.218Z,5.40
2022-12-01T12:00:22.964Z,5.30
2022-12-01T12:02:59.597Z,5.30
2022-12-01T12:05:57.643Z,5.20
2022-12-01T12:08:40.703Z,5.20
2022-12-01T12:11:15.772Z,5.10
2022-12-01T12:13:51.836Z,5.10
2022-12-01T12:16:27.542Z,5.00
2022-12-01T12:19:06.668Z,5.00
2022-12-01T12:21:35.736Z,5.00
2022-12-01T12:24:19.031Z,4.90
2022-12-01T12:26:52.705Z,4.90
2022-12-01T12:29:28.300Z,4.90
2022-12-01T12:32:04.161Z,5.00
2022-12-01T12:34:36.616Z,5.00
2022-12-01T12:37:10.899Z,5.00
2022-12-01T12:39:46.982Z,5.00
2022-12-01T12:42:21.011Z,5.00
2022-12-01T12:44:50.897Z,5.10
2022-12-01T12:47:39.910Z,5.10
2022-12-01T12:50:16.419Z,5.20
2022-12-01T12:52:46.534Z,5.20
2022-12-01T12:55:27.335Z,5.20
2022-12-01T12:57:59.897Z,5.20
2022-12-01T13:00:29.502Z,5.20
2022-12-01T13:02:58.871Z,5.10
2022-12-01T13:05:31.089Z,5.10
2022-12-01T13:08:01.779Z,5.10
2022-12-01T13:10:36.596Z,5.10
2022-12-01T13:13:12.738Z,5.10
2022-12-01T13:15:42.149Z,5.10
2022-12-01T13:18:16.236Z,5.10
2022-12-01T13:20:45.321Z,5.10
2022-12-01T13:23:17.289Z,5.10
2022-12-01T13:25:49.088Z,5.00
2022-12-01T13:28:29.549Z,5.00
2022-12-01T13:31:00.823Z,4.90
2022-12-01T13:33:29.602Z,5.00
2022-12-01T13:36:23.053Z,4.90
2022-12-01T13:38:54.168Z,4.90
2022-12-01T13:41:24.399Z,4.80
2022-12-01T13:44:04.918Z,4.80
2022-12-01T13:46:34.715Z,4.80
2022-12-01T13:49:04.384Z,4.80
2022-12-01T13:51:47.608Z,4.70
2022-12-01T13:54:28.909Z,4.70
2022-12-01T13:57:02.509Z,4.70
2022-12-01T13:59:42.679Z,4.70
2022-12-01T14:02:19.569Z,4.70
2022-12-01T14:04:47.875Z,4.70
2022-12-01T14:07:24.511Z,4.80
2022-12-01T14:09:54.096Z,4.80
2022-12-01T14:12:25.328Z,4.90
2022-12-01T14:14:58.220Z,4.90
2022-12-01T14:17:28.248Z,4.90
2022-12-01T14:19:56.768Z,5.00
2022-12-01T14:22:33.311Z,5.00
2022-12-01T14:25:02.127Z,5.00
2022-12-01T14:27:36.187Z,5.10
2022-12-01T14:30:22.967Z,5.10
2022-12-01T14:32:53.154Z,5.20
2022-12-01T14:35:21.251Z,5.20
2022-12-01T14:37:50.952Z,5.20
2022-12-01T14:40:22.316Z,5.30
2022-12-01T14:43:10.739Z,5.30
2022-12-01T14:45:41.497Z,5.40
2022-12-01T14:48:13.840Z,5.30
2022-12-01T14:50:46.550Z,5.40
2022-12-01T14:53:19.128Z,5.40
2022-12-01T14:55:50.401Z,5.40
2022-12-01T14:58:21.338Z,5.40
2022-12-01T15:00:55.317Z,5.40
2022-12-01T15:03:30.519Z,5.40
2022-12-01T15:06:00.333Z,5.30
2022-12-01T15:08:58.219Z,5.30
2022-12-01T15:11:22.118Z,5.20
2022-12-01T15:13:51.850Z,5.20
2022-12-01T15:16:21.164Z,5.20
2022-12-01T15:18:51.202Z,5.10
2022-12-01T15:21:20.763Z,5.10
2022-12-01T15:23:57.011Z,5.00
2022-12-01T15:26:26.209Z,5.00
2022-12-01T15:29:05.363Z,4.90
2022-12-01T15:31:34.948Z,4.80
2022-12-01T15:34:10.707Z,4.80
2022-12-01T15:36:39.568Z,4.70
2022-12-01T15:39:11.975Z,4.70
2022-12-01T15:41:41.848Z,4.70
2022-12-01T15:44:19.015Z,4.70
2022-12-01T15:46:47.092Z,4.70
2022-12-01T15:49:21.796Z,4.80
2022-12-01T15:51:50.884Z,4.80
2022-12-01T15:54:21.617Z,4.80
2022-12-01T15:56:52.493Z,4.80
2022-12-01T15:59:26.045Z,4.80
2022-12-01T16:01:54.356Z,4.80
2022-12-01T16:04:25.950Z,4.70
2022-12-01T16:06:57.008Z,4.80
2022-12-01T16:09:27.875Z,4.70
2022-12-01T16:12:21.803Z,4.70
2022-12-01T16:14:52.051Z,4.70
2022-12-01T16:17:20.409Z,4.70
2022-12-01T16:19:50.629Z,4.80
2022-12-01T16:22:20.387Z,4.80
2022-12-01T16:24:50.357Z,4.80
2022-12-01T16:27:20.653Z,4.80
2022-12-01T16:29:50.873Z,4.80
2022-12-01T16:32:21.588Z,4.80
2022-12-01T16:34:52.694Z,4.90
2022-12-01T16:37:21.775Z,4.80
2022-12-01T16:39:54.843Z,4.80
2022-12-01T16:42:25.738Z,4.80
2022-12-01T16:44:54.796Z,4.80
2022-12-01T16:47:23.902Z,4.70
2022-12-01T16:49:54.112Z,4.70
2022-12-01T16:52:43.817Z,4.80
2022-12-01T16:55:34.993Z,4.80
2022-12-01T16:58:03.488Z,4.90
2022-12-01T17:00:35.305Z,4.90
2022-12-01T17:03:05.604Z,4.90
2022-12-01T17:05:35.217Z,5.00
2022-12-01T17:08:04.940Z,5.00
2022-12-01T17:10:33.095Z,5.00
2022-12-01T17:13:01.475Z,5.10
2022-12-01T17:15:30.151Z,5.00
2022-12-01T17:17:58.663Z,5.10
2022-12-01T17:20:26.940Z,5.10
2022-12-01T17:23:00.722Z,5.10
2022-12-01T17:25:30.807Z,5.20
2022-12-01T17:27:59.052Z,5.20
2022-12-01T17:30:27.829Z,5.20
2022-12-01T17:32:55.936Z,5.20
2022-12-01T17:35:25.401Z,5.20
2022-12-01T17:37:53.599Z,5.20
2022-12-01T17:40:23.266Z,5.20
2022-12-01T17:42:51.833Z,5.20
2022-12-01T17:45:22.885Z,5.20
2022-12-01T17:47:51.859Z,5.20
2022-12-01T17:50:19.991Z,5.20
2022-12-01T17:52:48.596Z,5.20
2022-12-01T17:55:16.791Z,5.30
2022-12-01T17:57:46.483Z,5.30
2022-12-01T18:00:17.513Z,5.20
2022-12-01T18:02:47.497Z,5.20
2022-12-01T18:05:16.244Z,5.20
2022-12-01T18:07:44.361Z,5.20
2022-12-01T18:10:12.705Z,5.20
2022-12-01T18:12:41.431Z,5.20
2022-12-01T18:15:12.231Z,5.20
2022-12-01T18:17:43.723Z,5.20
2022-12-01T18:20:14.343Z,5.20
2022-12-01T18:22:43.350Z,5.20
2022-12-01T18:25:11.728Z,5.30
2022-12-01T18:27:42.616Z,5.30
2022-12-01T18:30:12.943Z,5.30
2022-12-01T18:32:42.350Z,5.30
2022-12-01T18:35:10.700Z,5.30
2022-12-01T18:37:40.306Z,5.30
2022-12-01T18:40:09.487Z,5.40
2022-12-01T18:42:37.616Z,5.40
2022-12-01T18:45:06.420Z,5.30
2022-12-01T18:47:37.667Z,5.40
2022-12-01T18:50:06.961Z,5.40
2022-12-01T18:52:35.932Z,5.40
2022-12-01T18:55:04.675Z,5.40
2022-12-01T18:57:32.801Z,5.40
2022-12-01T19:00:05.316Z,5.40
2022-12-01T19:02:33.545Z,5.40
2022-12-01T19:05:03.602Z,5.40
2022-12-01T19:07:31.872Z,5.40
2022-12-01T19:09:59.983Z,5.40
2022-12-01T19:12:28.852Z,5.50
2022-12-01T19:14:56.963Z,5.50
2022-12-01T19:17:26.241Z,5.50
2022-12-01T19:19:54.636Z,5.50
2022-12-01T19:22:24.634Z,5.50
2022-12-01T19:24:53.012Z,5.50
2022-12-01T19:27:22.416Z,5.50
2022-12-01T19:29:52.130Z,5.40
2022-12-01T19:32:22.306Z,5.30
2022-12-01T19:34:50.961Z,5.40
2022-12-01T19:37:20.272Z,5.40
2022-12-01T19:39:49.862Z,5.40
2022-12-01T19:42:18.135Z,5.40
2022-12-01T19:44:47.412Z,5.40
2022-12-01T19:47:20.632Z,5.40
2022-12-01T19:49:50.775Z,5.30
2022-12-01T19:52:18.851Z,5.20
2022-12-01T19:54:47.522Z,5.10
2022-12-01T19:57:17.237Z,5.10
2022-12-01T19:59:46.321Z,5.10
2022-12-01T20:02:14.660Z,5.10
2022-12-01T20:04:43.202Z,5.10
2022-12-01T20:07:11.352Z,5.10
2022-12-01T20:09:44.339Z,5.00
2022-12-01T20:12:15.534Z,5.10
2022-12-01T20:14:45.515Z,5.10
2022-12-01T20:17:16.014Z,5.10
2022-12-01T20:19:44.592Z,5.00
2022-12-01T20:22:12.886Z,5.00
2022-12-01T20:24:41.969Z,5.00
2022-12-01T20:27:11.053Z,5.10
2022-12-01T20:29:39.184Z,5.10
2022-12-01T20:32:09.433Z,5.10
2022-12-01T20:34:37.648Z,5.10
2022-12-01T20:37:06.359Z,5.20
2022-12-01T20:39:36.813Z,5.20
2022-12-01T20:42:05.806Z,5.20
2022-12-01T20:44:33.905Z,5.10
2022-12-01T20:47:02.899Z,5.10
2022-12-01T20:49:32.983Z,5.10
2022-12-01T20:52:01.304Z,5.10
2022-12-01T20:54:30.417Z,5.10
2022-12-01T20:56:59.229Z,5.10
2022-12-01T20:59:32.379Z,5.10
2022-12-01T21:02:01.787Z,5.10
2022-12-01T21:04:30.598Z,5.20
2022-12-01T21:07:00.252Z,5.20
2022-12-01T21:09:29.049Z,5.20
2022-12-01T21:12:16.974Z,5.20
2022-12-01T21:14:48.953Z,5.30
2022-12-01T21:17:20.763Z,5.30
2022-12-01T21:19:53.181Z,5.20
2022-12-01T21:22:22.639Z,5.30
2022-12-01T21:24:51.869Z,5.30
2022-12-01T21:30:17.035Z,5.30
2022-12-01T21:32:46.672Z,5.20
2022-12-01T21:35:17.024Z,5.20
2022-12-01T21:37:46.523Z,5.30
2022-12-01T21:40:16.936Z,5.30
2022-12-01T21:42:45.304Z,5.30
2022-12-01T21:45:26.280Z,5.30
2022-12-01T21:47:54.704Z,5.40
2022-12-01T21:50:24.896Z,5.40
2022-12-01T21:52:54.512Z,5.40
2022-12-01T21:55:33.772Z,5.40
2022-12-01T21:58:01.832Z,5.40
2022-12-01T22:00:31.407Z,5.40
2022-12-01T22:03:04.373Z,5.40
2022-12-01T22:05:35.688Z,5.40
2022-12-01T22:08:11.283Z,5.40
2022-12-01T22:10:54.688Z,5.40
2022-12-01T22:13:23.761Z,5.40
2022-12-01T22:15:53.443Z,5.40
2022-12-01T22:18:41.100Z,5.40
2022-12-01T22:21:27.873Z,5.40
2022-12-01T22:24:00.823Z,5.30
2022-12-01T22:26:29.451Z,5.20
2022-12-01T22:28:58.969Z,5.20
2022-12-01T22:31:29.032Z,5.20
2022-12-01T22:34:03.415Z,5.20
2022-12-01T22:36:33.334Z,5.10
2022-12-01T22:39:05.185Z,5.10
2022-12-01T22:41:33.202Z,5.10
2022-12-01T22:44:01.851Z,5.20
2022-12-01T22:46:31.364Z,5.20
2022-12-01T22:49:00.833Z,5.20
2022-12-01T22:51:31.023Z,5.20
2022-12-01T22:54:02.664Z,5.20
2022-12-01T22:56:34.797Z,5.20
2022-12-01T22:59:10.788Z,5.20
2022-12-01T23:01:42.779Z,5.20
2022-12-01T23:04:19.941Z,5.20
2022-12-01T23:06:58.129Z,5.30
2022-12-01T23:09:28.935Z,5.30
2022-12-01T23:12:00.596Z,5.30
2022-12-01T23:14:29.423Z,5.30
2022-12-01T23:17:01.587Z,5.30
2022-12-01T23:19:30.110Z,5.30
2022-12-01T23:21:58.191Z,5.30
2022-12-01T23:24:30.978Z,5.30
2022-12-01T23:27:03.564Z,5.30
2022-12-01T23:29:32.047Z,5.30
2022-12-01T23:32:00.495Z,5.30
2022-12-01T23:34:29.128Z,5.30
2022-12-01T23:36:57.805Z,5.40
2022-12-01T23:39:29.918Z,5.30
2022-12-01T23:41:58.804Z,5.40
2022-12-01T23:44:35.642Z,5.40
2022-12-01T23:47:04.476Z,5.40
2022-12-01T23:49:34.101Z,5.40
2022-12-01T23:52:03.637Z,5.40
2022-12-01T23:54:32.826Z,5.40
2022-12-01T23:57:02.075Z,5.40
2022-12-01T23:59:32.603Z,5.40
